sensor_id;sensor_type;location;lat;lon;timestamp;P1;durP1;ratioP1;P2;durP2;ratioP2
51296;SDS011;37380;45.186;9.792;2023-12-20T00:01:08;60.45;;;48.28;;
51296;SDS011;37380;45.186;9.792;2023-12-20T00:03:37;68.15;;;49.13;;
51296;SDS011;37380;45.186;9.792;2023-12-20T00:06:08;60.60;;;47.28;;
51296;SDS011;37380;45.186;9.792;2023-12-20T00:08:37;68.38;;;48.15;;
51296;SDS011;37380;45.186;9.792;2023-12-20T00:11:04;90.60;;;64.63;;
51296;SDS011;37380;45.186;9.792;2023-12-20T00:13:33;85.40;;;62.40;;
51296;SDS011;37380;45.186;9.792;2023-12-20T00:16:01;104.25;;;67.53;;
51296;SDS011;37380;45.186;9.792;2023-12-20T00:18:28;91.57;;;57.47;;
51296;SDS011;37380;45.186;9.792;2023-12-20T00:20:55;66.93;;;49.65;;
51296;SDS011;37380;45.186;9.792;2023-12-20T00:23:23;77.00;;;53.05;;
51296;SDS011;37380;45.186;9.792;2023-12-20T00:25:51;81.90;;;56.60;;
51296;SDS011;37380;45.186;9.792;2023-12-20T00:28:18;80.57;;;56.25;;
51296;SDS011;37380;45.186;9.792;2023-12-20T00:30:45;69.20;;;50.78;;
51296;SDS011;37380;45.186;9.792;2023-12-20T00:33:13;75.95;;;52.50;;
51296;SDS011;37380;45.186;9.792;2023-12-20T00:35:41;57.28;;;41.88;;
51296;SDS011;37380;45.186;9.792;2023-12-20T00:38:08;57.78;;;46.65;;
51296;SDS011;37380;45.186;9.792;2023-12-20T00:40:35;61.60;;;46.25;;
51296;SDS011;37380;45.186;9.792;2023-12-20T00:43:02;66.80;;;49.03;;
51296;SDS011;37380;45.186;9.792;2023-12-20T00:45:29;58.33;;;49.00;;
51296;SDS011;37380;45.186;9.792;2023-12-20T00:47:57;65.75;;;50.47;;
51296;SDS011;37380;45.186;9.792;2023-12-20T00:50:27;57.65;;;45.75;;
51296;SDS011;37380;45.186;9.792;2023-12-20T00:52:56;60.70;;;44.00;;
51296;SDS011;37380;45.186;9.792;2023-12-20T00:55:23;51.95;;;42.58;;
51296;SDS011;37380;45.186;9.792;2023-12-20T00:57:51;61.10;;;42.42;;
51296;SDS011;37380;45.186;9.792;2023-12-20T01:00:20;59.78;;;44.90;;
51296;SDS011;37380;45.186;9.792;2023-12-20T01:02:47;61.00;;;46.00;;
51296;SDS011;37380;45.186;9.792;2023-12-20T01:05:18;56.13;;;44.72;;
51296;SDS011;37380;45.186;9.792;2023-12-20T01:07:45;68.95;;;45.67;;
51296;SDS011;37380;45.186;9.792;2023-12-20T01:10:14;64.75;;;48.78;;
51296;SDS011;37380;45.186;9.792;2023-12-20T01:12:43;50.28;;;41.10;;
51296;SDS011;37380;45.186;9.792;2023-12-20T01:15:11;56.92;;;42.28;;
51296;SDS011;37380;45.186;9.792;2023-12-20T01:17:38;67.53;;;46.42;;
51296;SDS011;37380;45.186;9.792;2023-12-20T01:20:05;57.40;;;45.10;;
51296;SDS011;37380;45.186;9.792;2023-12-20T01:22:32;153.73;;;44.15;;
51296;SDS011;37380;45.186;9.792;2023-12-20T01:25:02;139.15;;;50.33;;
51296;SDS011;37380;45.186;9.792;2023-12-20T01:27:29;73.97;;;50.17;;
51296;SDS011;37380;45.186;9.792;2023-12-20T01:29:57;57.95;;;48.78;;
51296;SDS011;37380;45.186;9.792;2023-12-20T01:32:26;64.97;;;50.30;;
51296;SDS011;37380;45.186;9.792;2023-12-20T01:35:07;63.20;;;50.30;;
51296;SDS011;37380;45.186;9.792;2023-12-20T01:37:34;59.47;;;47.05;;
51296;SDS011;37380;45.186;9.792;2023-12-20T01:40:02;68.25;;;49.65;;
51296;SDS011;37380;45.186;9.792;2023-12-20T01:42:29;57.88;;;45.40;;
51296;SDS011;37380;45.186;9.792;2023-12-20T01:44:56;55.55;;;45.80;;
51296;SDS011;37380;45.186;9.792;2023-12-20T01:47:25;54.10;;;43.90;;
51296;SDS011;37380;45.186;9.792;2023-12-20T01:49:53;53.25;;;44.63;;
51296;SDS011;37380;45.186;9.792;2023-12-20T01:52:23;46.78;;;41.50;;
51296;SDS011;37380;45.186;9.792;2023-12-20T01:54:52;48.22;;;40.65;;
51296;SDS011;37380;45.186;9.792;2023-12-20T01:57:21;53.97;;;44.45;;
51296;SDS011;37380;45.186;9.792;2023-12-20T01:59:50;65.35;;;47.33;;
51296;SDS011;37380;45.186;9.792;2023-12-20T02:02:17;63.28;;;50.80;;
51296;SDS011;37380;45.186;9.792;2023-12-20T02:04:45;53.78;;;44.85;;
51296;SDS011;37380;45.186;9.792;2023-12-20T02:07:14;49.85;;;44.00;;
51296;SDS011;37380;45.186;9.792;2023-12-20T02:09:42;59.53;;;44.40;;
51296;SDS011;37380;45.186;9.792;2023-12-20T02:12:09;59.47;;;49.15;;
51296;SDS011;37380;45.186;9.792;2023-12-20T02:14:40;66.20;;;53.72;;
51296;SDS011;37380;45.186;9.792;2023-12-20T02:17:07;55.35;;;46.13;;
51296;SDS011;37380;45.186;9.792;2023-12-20T02:19:34;49.17;;;43.67;;
51296;SDS011;37380;45.186;9.792;2023-12-20T02:22:09;59.72;;;49.55;;
51296;SDS011;37380;45.186;9.792;2023-12-20T02:24:42;52.65;;;44.67;;
51296;SDS011;37380;45.186;9.792;2023-12-20T02:27:10;59.80;;;47.05;;
51296;SDS011;37380;45.186;9.792;2023-12-20T02:29:40;75.03;;;54.83;;
51296;SDS011;37380;45.186;9.792;2023-12-20T02:32:06;69.28;;;51.85;;
51296;SDS011;37380;45.186;9.792;2023-12-20T02:34:33;62.95;;;53.40;;
51296;SDS011;37380;45.186;9.792;2023-12-20T02:37:05;84.78;;;54.53;;
51296;SDS011;37380;45.186;9.792;2023-12-20T02:39:32;66.60;;;52.55;;
51296;SDS011;37380;45.186;9.792;2023-12-20T02:42:00;58.75;;;48.00;;
51296;SDS011;37380;45.186;9.792;2023-12-20T02:44:31;73.55;;;54.50;;
51296;SDS011;37380;45.186;9.792;2023-12-20T02:46:59;49.20;;;42.15;;
51296;SDS011;37380;45.186;9.792;2023-12-20T02:49:40;52.28;;;42.67;;
51296;SDS011;37380;45.186;9.792;2023-12-20T02:52:07;47.97;;;41.80;;
51296;SDS011;37380;45.186;9.792;2023-12-20T02:54:35;47.97;;;40.17;;
51296;SDS011;37380;45.186;9.792;2023-12-20T02:57:03;42.13;;;37.60;;
51296;SDS011;37380;45.186;9.792;2023-12-20T02:59:34;43.28;;;38.38;;
51296;SDS011;37380;45.186;9.792;2023-12-20T03:02:02;68.80;;;37.50;;
51296;SDS011;37380;45.186;9.792;2023-12-20T03:04:29;44.78;;;38.35;;
51296;SDS011;37380;45.186;9.792;2023-12-20T03:07:02;42.42;;;37.00;;
51296;SDS011;37380;45.186;9.792;2023-12-20T03:09:30;38.08;;;33.92;;
51296;SDS011;37380;45.186;9.792;2023-12-20T03:12:13;41.05;;;34.92;;
51296;SDS011;37380;45.186;9.792;2023-12-20T03:14:40;44.15;;;37.72;;
51296;SDS011;37380;45.186;9.792;2023-12-20T03:17:09;40.10;;;35.80;;
51296;SDS011;37380;45.186;9.792;2023-12-20T03:19:36;50.60;;;37.60;;
51296;SDS011;37380;45.186;9.792;2023-12-20T03:22:03;48.30;;;38.97;;
51296;SDS011;37380;45.186;9.792;2023-12-20T03:24:30;46.25;;;39.22;;
51296;SDS011;37380;45.186;9.792;2023-12-20T03:26:59;42.03;;;35.50;;
51296;SDS011;37380;45.186;9.792;2023-12-20T03:29:28;41.22;;;36.10;;
51296;SDS011;37380;45.186;9.792;2023-12-20T03:31:55;44.50;;;37.58;;
51296;SDS011;37380;45.186;9.792;2023-12-20T03:34:22;48.13;;;37.90;;
51296;SDS011;37380;45.186;9.792;2023-12-20T03:36:51;55.75;;;39.97;;
51296;SDS011;37380;45.186;9.792;2023-12-20T03:39:18;41.25;;;36.72;;
51296;SDS011;37380;45.186;9.792;2023-12-20T03:41:46;44.45;;;36.22;;
51296;SDS011;37380;45.186;9.792;2023-12-20T03:44:13;42.03;;;35.90;;
51296;SDS011;37380;45.186;9.792;2023-12-20T03:46:44;42.90;;;35.25;;
51296;SDS011;37380;45.186;9.792;2023-12-20T03:49:13;37.88;;;33.75;;
51296;SDS011;37380;45.186;9.792;2023-12-20T03:51:41;40.47;;;34.92;;
51296;SDS011;37380;45.186;9.792;2023-12-20T03:54:10;43.65;;;35.13;;
51296;SDS011;37380;45.186;9.792;2023-12-20T03:56:37;46.28;;;38.97;;
51296;SDS011;37380;45.186;9.792;2023-12-20T03:59:05;47.65;;;38.10;;
51296;SDS011;37380;45.186;9.792;2023-12-20T04:01:33;48.05;;;39.70;;
51296;SDS011;37380;45.186;9.792;2023-12-20T04:04:03;40.28;;;35.80;;
51296;SDS011;37380;45.186;9.792;2023-12-20T04:06:30;43.85;;;38.35;;
51296;SDS011;37380;45.186;9.792;2023-12-20T04:08:58;44.33;;;39.38;;
51296;SDS011;37380;45.186;9.792;2023-12-20T04:11:25;53.72;;;42.78;;
51296;SDS011;37380;45.186;9.792;2023-12-20T04:13:53;54.05;;;43.95;;
51296;SDS011;37380;45.186;9.792;2023-12-20T04:16:20;68.35;;;45.92;;
51296;SDS011;37380;45.186;9.792;2023-12-20T04:18:47;55.67;;;44.28;;
51296;SDS011;37380;45.186;9.792;2023-12-20T04:21:15;61.40;;;40.53;;
51296;SDS011;37380;45.186;9.792;2023-12-20T04:23:42;46.80;;;40.72;;
51296;SDS011;37380;45.186;9.792;2023-12-20T04:26:10;58.50;;;42.35;;
51296;SDS011;37380;45.186;9.792;2023-12-20T04:28:37;51.08;;;42.70;;
51296;SDS011;37380;45.186;9.792;2023-12-20T04:31:04;62.00;;;42.25;;
51296;SDS011;37380;45.186;9.792;2023-12-20T04:33:32;42.80;;;37.40;;
51296;SDS011;37380;45.186;9.792;2023-12-20T04:36:01;56.55;;;42.08;;
51296;SDS011;37380;45.186;9.792;2023-12-20T04:38:29;51.30;;;42.67;;
51296;SDS011;37380;45.186;9.792;2023-12-20T04:40:55;46.90;;;40.78;;
51296;SDS011;37380;45.186;9.792;2023-12-20T04:43:23;55.47;;;40.08;;
51296;SDS011;37380;45.186;9.792;2023-12-20T04:45:51;45.33;;;39.17;;
51296;SDS011;37380;45.186;9.792;2023-12-20T04:48:18;47.97;;;39.08;;
51296;SDS011;37380;45.186;9.792;2023-12-20T04:50:45;44.58;;;38.63;;
51296;SDS011;37380;45.186;9.792;2023-12-20T04:53:12;48.30;;;39.65;;
51296;SDS011;37380;45.186;9.792;2023-12-20T04:55:39;45.55;;;37.70;;
51296;SDS011;37380;45.186;9.792;2023-12-20T04:58:06;48.70;;;39.38;;
51296;SDS011;37380;45.186;9.792;2023-12-20T05:00:33;46.95;;;37.83;;
51296;SDS011;37380;45.186;9.792;2023-12-20T05:03:00;41.20;;;36.85;;
51296;SDS011;37380;45.186;9.792;2023-12-20T05:05:28;44.92;;;37.67;;
51296;SDS011;37380;45.186;9.792;2023-12-20T05:07:55;56.28;;;38.72;;
51296;SDS011;37380;45.186;9.792;2023-12-20T05:10:22;42.95;;;38.30;;
51296;SDS011;37380;45.186;9.792;2023-12-20T05:12:49;43.53;;;37.60;;
51296;SDS011;37380;45.186;9.792;2023-12-20T05:15:16;45.22;;;38.53;;
51296;SDS011;37380;45.186;9.792;2023-12-20T05:17:43;46.35;;;37.53;;
51296;SDS011;37380;45.186;9.792;2023-12-20T05:20:11;45.67;;;37.83;;
51296;SDS011;37380;45.186;9.792;2023-12-20T05:22:38;44.53;;;37.70;;
51296;SDS011;37380;45.186;9.792;2023-12-20T05:25:05;50.70;;;39.45;;
51296;SDS011;37380;45.186;9.792;2023-12-20T05:27:32;47.97;;;40.33;;
51296;SDS011;37380;45.186;9.792;2023-12-20T05:30:00;47.03;;;39.38;;
51296;SDS011;37380;45.186;9.792;2023-12-20T05:32:27;48.15;;;39.08;;
51296;SDS011;37380;45.186;9.792;2023-12-20T05:34:54;42.63;;;38.05;;
51296;SDS011;37380;45.186;9.792;2023-12-20T05:37:21;45.50;;;37.65;;
51296;SDS011;37380;45.186;9.792;2023-12-20T05:39:48;45.05;;;38.75;;
51296;SDS011;37380;45.186;9.792;2023-12-20T05:42:17;44.90;;;37.55;;
51296;SDS011;37380;45.186;9.792;2023-12-20T05:44:44;45.55;;;37.97;;
51296;SDS011;37380;45.186;9.792;2023-12-20T05:47:11;46.35;;;38.83;;
51296;SDS011;37380;45.186;9.792;2023-12-20T05:49:38;52.53;;;42.03;;
51296;SDS011;37380;45.186;9.792;2023-12-20T05:52:06;75.55;;;44.83;;
51296;SDS011;37380;45.186;9.792;2023-12-20T05:54:33;47.65;;;42.50;;
51296;SDS011;37380;45.186;9.792;2023-12-20T05:57:00;55.30;;;45.33;;
51296;SDS011;37380;45.186;9.792;2023-12-20T05:59:27;52.55;;;44.47;;
51296;SDS011;37380;45.186;9.792;2023-12-20T06:01:54;55.78;;;44.88;;
51296;SDS011;37380;45.186;9.792;2023-12-20T06:04:22;54.15;;;43.50;;
51296;SDS011;37380;45.186;9.792;2023-12-20T06:06:49;44.33;;;39.08;;
51296;SDS011;37380;45.186;9.792;2023-12-20T06:09:16;47.42;;;38.60;;
51296;SDS011;37380;45.186;9.792;2023-12-20T06:11:43;52.78;;;41.13;;
51296;SDS011;37380;45.186;9.792;2023-12-20T06:14:10;50.03;;;38.78;;
51296;SDS011;37380;45.186;9.792;2023-12-20T06:16:37;50.83;;;39.15;;
51296;SDS011;37380;45.186;9.792;2023-12-20T06:19:04;53.70;;;41.17;;
51296;SDS011;37380;45.186;9.792;2023-12-20T06:21:32;47.72;;;37.25;;
51296;SDS011;37380;45.186;9.792;2023-12-20T06:23:59;54.83;;;40.28;;
51296;SDS011;37380;45.186;9.792;2023-12-20T06:26:26;44.55;;;38.10;;
51296;SDS011;37380;45.186;9.792;2023-12-20T06:28:53;47.30;;;39.05;;
51296;SDS011;37380;45.186;9.792;2023-12-20T06:31:21;47.05;;;38.60;;
51296;SDS011;37380;45.186;9.792;2023-12-20T06:33:50;49.83;;;39.00;;
51296;SDS011;37380;45.186;9.792;2023-12-20T06:36:24;47.40;;;38.22;;
51296;SDS011;37380;45.186;9.792;2023-12-20T06:38:51;45.50;;;36.45;;
51296;SDS011;37380;45.186;9.792;2023-12-20T06:41:18;41.42;;;35.95;;
51296;SDS011;37380;45.186;9.792;2023-12-20T06:43:46;56.97;;;38.83;;
51296;SDS011;37380;45.186;9.792;2023-12-20T06:46:16;46.92;;;37.47;;
51296;SDS011;37380;45.186;9.792;2023-12-20T06:48:44;52.05;;;41.92;;
51296;SDS011;37380;45.186;9.792;2023-12-20T06:51:17;49.20;;;41.10;;
51296;SDS011;37380;45.186;9.792;2023-12-20T06:53:50;46.42;;;39.92;;
51296;SDS011;37380;45.186;9.792;2023-12-20T06:56:17;50.13;;;40.03;;
51296;SDS011;37380;45.186;9.792;2023-12-20T06:58:45;42.88;;;37.70;;
51296;SDS011;37380;45.186;9.792;2023-12-20T07:01:13;42.30;;;37.72;;
51296;SDS011;37380;45.186;9.792;2023-12-20T07:03:41;51.42;;;39.47;;
51296;SDS011;37380;45.186;9.792;2023-12-20T07:06:09;44.60;;;38.15;;
51296;SDS011;37380;45.186;9.792;2023-12-20T07:08:40;41.85;;;37.33;;
51296;SDS011;37380;45.186;9.792;2023-12-20T07:11:08;42.92;;;37.38;;
51296;SDS011;37380;45.186;9.792;2023-12-20T07:13:35;41.75;;;35.92;;
51296;SDS011;37380;45.186;9.792;2023-12-20T07:16:02;44.03;;;37.15;;
51296;SDS011;37380;45.186;9.792;2023-12-20T07:18:29;57.92;;;37.40;;
51296;SDS011;37380;45.186;9.792;2023-12-20T07:20:56;47.25;;;38.75;;
51296;SDS011;37380;45.186;9.792;2023-12-20T07:23:23;51.17;;;40.35;;
51296;SDS011;37380;45.186;9.792;2023-12-20T07:25:52;45.35;;;40.00;;
51296;SDS011;37380;45.186;9.792;2023-12-20T07:28:19;66.32;;;41.92;;
51296;SDS011;37380;45.186;9.792;2023-12-20T07:30:46;53.40;;;39.85;;
51296;SDS011;37380;45.186;9.792;2023-12-20T07:33:15;54.03;;;39.08;;
51296;SDS011;37380;45.186;9.792;2023-12-20T07:35:44;46.33;;;38.65;;
51296;SDS011;37380;45.186;9.792;2023-12-20T07:38:12;70.53;;;42.10;;
51296;SDS011;37380;45.186;9.792;2023-12-20T07:40:39;50.30;;;40.15;;
51296;SDS011;37380;45.186;9.792;2023-12-20T07:43:06;45.83;;;37.05;;
51296;SDS011;37380;45.186;9.792;2023-12-20T07:45:33;51.97;;;39.72;;
51296;SDS011;37380;45.186;9.792;2023-12-20T07:48:00;55.25;;;42.85;;
51296;SDS011;37380;45.186;9.792;2023-12-20T07:50:27;51.35;;;42.00;;
51296;SDS011;37380;45.186;9.792;2023-12-20T07:52:54;52.28;;;40.78;;
51296;SDS011;37380;45.186;9.792;2023-12-20T07:55:22;47.70;;;38.03;;
51296;SDS011;37380;45.186;9.792;2023-12-20T07:57:49;41.47;;;37.08;;
51296;SDS011;37380;45.186;9.792;2023-12-20T08:00:17;44.83;;;38.67;;
51296;SDS011;37380;45.186;9.792;2023-12-20T08:02:44;54.88;;;41.85;;
51296;SDS011;37380;45.186;9.792;2023-12-20T08:05:11;48.63;;;40.22;;
51296;SDS011;37380;45.186;9.792;2023-12-20T08:07:38;49.72;;;40.60;;
51296;SDS011;37380;45.186;9.792;2023-12-20T08:10:05;55.67;;;41.25;;
51296;SDS011;37380;45.186;9.792;2023-12-20T08:12:33;66.72;;;41.25;;
51296;SDS011;37380;45.186;9.792;2023-12-20T08:15:01;58.38;;;39.92;;
51296;SDS011;37380;45.186;9.792;2023-12-20T08:17:28;52.92;;;40.15;;
51296;SDS011;37380;45.186;9.792;2023-12-20T08:19:56;51.47;;;38.53;;
51296;SDS011;37380;45.186;9.792;2023-12-20T08:22:23;57.47;;;40.63;;
51296;SDS011;37380;45.186;9.792;2023-12-20T08:24:50;45.90;;;37.63;;
51296;SDS011;37380;45.186;9.792;2023-12-20T08:27:17;49.42;;;36.60;;
51296;SDS011;37380;45.186;9.792;2023-12-20T08:29:44;53.15;;;37.40;;
51296;SDS011;37380;45.186;9.792;2023-12-20T08:32:12;43.42;;;36.53;;
51296;SDS011;37380;45.186;9.792;2023-12-20T08:34:39;48.47;;;32.92;;
51296;SDS011;37380;45.186;9.792;2023-12-20T08:37:06;48.13;;;34.97;;
51296;SDS011;37380;45.186;9.792;2023-12-20T08:39:33;41.28;;;32.28;;
51296;SDS011;37380;45.186;9.792;2023-12-20T08:42:00;41.30;;;32.72;;
51296;SDS011;37380;45.186;9.792;2023-12-20T08:44:27;41.72;;;32.63;;
51296;SDS011;37380;45.186;9.792;2023-12-20T08:46:55;42.17;;;32.88;;
51296;SDS011;37380;45.186;9.792;2023-12-20T08:49:23;39.47;;;31.27;;
51296;SDS011;37380;45.186;9.792;2023-12-20T08:51:52;40.17;;;33.85;;
51296;SDS011;37380;45.186;9.792;2023-12-20T08:54:19;46.20;;;33.00;;
51296;SDS011;37380;45.186;9.792;2023-12-20T08:56:46;38.78;;;31.10;;
51296;SDS011;37380;45.186;9.792;2023-12-20T08:59:13;41.83;;;32.80;;
51296;SDS011;37380;45.186;9.792;2023-12-20T09:01:40;43.45;;;34.13;;
51296;SDS011;37380;45.186;9.792;2023-12-20T09:04:08;44.60;;;32.45;;
51296;SDS011;37380;45.186;9.792;2023-12-20T09:06:35;46.53;;;33.22;;
51296;SDS011;37380;45.186;9.792;2023-12-20T09:09:02;41.33;;;32.40;;
51296;SDS011;37380;45.186;9.792;2023-12-20T09:11:32;46.88;;;33.72;;
51296;SDS011;37380;45.186;9.792;2023-12-20T09:13:59;41.83;;;32.60;;
51296;SDS011;37380;45.186;9.792;2023-12-20T09:16:26;40.53;;;31.60;;
51296;SDS011;37380;45.186;9.792;2023-12-20T09:18:53;46.40;;;33.47;;
51296;SDS011;37380;45.186;9.792;2023-12-20T09:21:20;37.95;;;32.28;;
51296;SDS011;37380;45.186;9.792;2023-12-20T09:23:48;35.90;;;29.48;;
51296;SDS011;37380;45.186;9.792;2023-12-20T09:26:15;41.85;;;30.50;;
51296;SDS011;37380;45.186;9.792;2023-12-20T09:28:42;37.78;;;29.85;;
51296;SDS011;37380;45.186;9.792;2023-12-20T09:31:09;30.95;;;25.20;;
51296;SDS011;37380;45.186;9.792;2023-12-20T09:33:36;29.45;;;25.83;;
51296;SDS011;37380;45.186;9.792;2023-12-20T09:36:04;32.15;;;28.73;;
51296;SDS011;37380;45.186;9.792;2023-12-20T09:38:32;32.97;;;26.17;;
51296;SDS011;37380;45.186;9.792;2023-12-20T09:40:59;41.72;;;28.77;;
51296;SDS011;37380;45.186;9.792;2023-12-20T09:43:27;35.78;;;29.08;;
51296;SDS011;37380;45.186;9.792;2023-12-20T09:45:57;36.60;;;26.45;;
51296;SDS011;37380;45.186;9.792;2023-12-20T09:48:29;38.00;;;26.50;;
51296;SDS011;37380;45.186;9.792;2023-12-20T09:50:57;30.67;;;25.38;;
51296;SDS011;37380;45.186;9.792;2023-12-20T09:53:25;28.25;;;23.13;;
51296;SDS011;37380;45.186;9.792;2023-12-20T09:55:59;29.60;;;22.23;;
51296;SDS011;37380;45.186;9.792;2023-12-20T09:58:27;28.95;;;20.88;;
51296;SDS011;37380;45.186;9.792;2023-12-20T10:00:55;25.10;;;19.55;;
51296;SDS011;37380;45.186;9.792;2023-12-20T10:03:24;31.55;;;22.23;;
51296;SDS011;37380;45.186;9.792;2023-12-20T10:05:54;27.02;;;20.88;;
51296;SDS011;37380;45.186;9.792;2023-12-20T10:08:24;27.70;;;21.00;;
51296;SDS011;37380;45.186;9.792;2023-12-20T10:10:52;26.00;;;21.10;;
51296;SDS011;37380;45.186;9.792;2023-12-20T10:13:19;23.35;;;17.67;;
51296;SDS011;37380;45.186;9.792;2023-12-20T10:15:46;26.23;;;19.75;;
51296;SDS011;37380;45.186;9.792;2023-12-20T10:18:13;36.88;;;24.88;;
51296;SDS011;37380;45.186;9.792;2023-12-20T10:20:41;77.00;;;48.35;;
51296;SDS011;37380;45.186;9.792;2023-12-20T10:23:11;54.28;;;39.25;;
51296;SDS011;37380;45.186;9.792;2023-12-20T10:25:39;40.80;;;28.48;;
51296;SDS011;37380;45.186;9.792;2023-12-20T10:30:37;51.63;;;33.40;;
51296;SDS011;37380;45.186;9.792;2023-12-20T10:33:08;59.00;;;33.58;;
51296;SDS011;37380;45.186;9.792;2023-12-20T10:35:37;29.52;;;24.65;;
51296;SDS011;37380;45.186;9.792;2023-12-20T10:38:11;34.53;;;24.20;;
51296;SDS011;37380;45.186;9.792;2023-12-20T10:40:41;51.95;;;27.23;;
51296;SDS011;37380;45.186;9.792;2023-12-20T10:43:09;44.10;;;26.30;;
51296;SDS011;37380;45.186;9.792;2023-12-20T10:45:38;32.38;;;26.05;;
51296;SDS011;37380;45.186;9.792;2023-12-20T10:48:05;30.45;;;23.15;;
51296;SDS011;37380;45.186;9.792;2023-12-20T10:50:32;38.05;;;24.55;;
51296;SDS011;37380;45.186;9.792;2023-12-20T10:53:05;33.17;;;24.35;;
51296;SDS011;37380;45.186;9.792;2023-12-20T10:55:33;29.58;;;24.08;;
51296;SDS011;37380;45.186;9.792;2023-12-20T10:58:01;25.05;;;22.00;;
51296;SDS011;37380;45.186;9.792;2023-12-20T11:00:39;42.95;;;29.63;;
51296;SDS011;37380;45.186;9.792;2023-12-20T11:03:11;39.63;;;29.63;;
51296;SDS011;37380;45.186;9.792;2023-12-20T11:11:37;33.78;;;24.63;;
51296;SDS011;37380;45.186;9.792;2023-12-20T11:14:38;36.20;;;26.92;;
51296;SDS011;37380;45.186;9.792;2023-12-20T11:17:10;30.02;;;23.75;;
51296;SDS011;37380;45.186;9.792;2023-12-20T11:22:21;25.80;;;20.23;;
51296;SDS011;37380;45.186;9.792;2023-12-20T11:24:49;35.90;;;19.45;;
51296;SDS011;37380;45.186;9.792;2023-12-20T11:27:18;24.55;;;18.27;;
51296;SDS011;37380;45.186;9.792;2023-12-20T11:29:52;22.23;;;18.30;;
51296;SDS011;37380;45.186;9.792;2023-12-20T11:34:57;21.20;;;18.42;;
51296;SDS011;37380;45.186;9.792;2023-12-20T11:37:29;21.15;;;17.48;;
51296;SDS011;37380;45.186;9.792;2023-12-20T11:40:07;20.75;;;16.85;;
51296;SDS011;37380;45.186;9.792;2023-12-20T11:42:39;19.90;;;17.70;;
51296;SDS011;37380;45.186;9.792;2023-12-20T11:45:08;21.38;;;17.63;;
51296;SDS011;37380;45.186;9.792;2023-12-20T11:47:45;18.77;;;16.13;;
51296;SDS011;37380;45.186;9.792;2023-12-20T11:50:14;20.77;;;17.25;;
51296;SDS011;37380;45.186;9.792;2023-12-20T11:52:41;21.70;;;16.75;;
51296;SDS011;37380;45.186;9.792;2023-12-20T11:55:08;21.20;;;14.35;;
51296;SDS011;37380;45.186;9.792;2023-12-20T11:57:35;27.63;;;17.60;;
51296;SDS011;37380;45.186;9.792;2023-12-20T12:00:03;21.05;;;15.77;;
51296;SDS011;37380;45.186;9.792;2023-12-20T12:02:37;24.60;;;17.65;;
51296;SDS011;37380;45.186;9.792;2023-12-20T12:05:04;22.63;;;16.27;;
51296;SDS011;37380;45.186;9.792;2023-12-20T12:07:33;25.45;;;18.52;;
51296;SDS011;37380;45.186;9.792;2023-12-20T12:10:01;30.40;;;16.13;;
51296;SDS011;37380;45.186;9.792;2023-12-20T12:12:28;20.30;;;16.17;;
51296;SDS011;37380;45.186;9.792;2023-12-20T12:14:56;22.02;;;17.95;;
51296;SDS011;37380;45.186;9.792;2023-12-20T12:17:24;28.05;;;18.35;;
51296;SDS011;37380;45.186;9.792;2023-12-20T12:19:52;22.85;;;15.68;;
51296;SDS011;37380;45.186;9.792;2023-12-20T12:22:31;27.15;;;17.33;;
51296;SDS011;37380;45.186;9.792;2023-12-20T12:25:05;24.20;;;19.92;;
51296;SDS011;37380;45.186;9.792;2023-12-20T12:27:37;23.92;;;16.98;;
51296;SDS011;37380;45.186;9.792;2023-12-20T12:30:06;30.17;;;22.00;;
51296;SDS011;37380;45.186;9.792;2023-12-20T12:32:34;29.00;;;20.75;;
51296;SDS011;37380;45.186;9.792;2023-12-20T12:35:03;25.02;;;20.05;;
51296;SDS011;37380;45.186;9.792;2023-12-20T12:37:39;47.55;;;24.98;;
51296;SDS011;37380;45.186;9.792;2023-12-20T12:40:12;34.13;;;23.50;;
51296;SDS011;37380;45.186;9.792;2023-12-20T12:42:42;32.92;;;26.40;;
51296;SDS011;37380;45.186;9.792;2023-12-20T12:45:11;41.67;;;26.60;;
51296;SDS011;37380;45.186;9.792;2023-12-20T12:47:38;40.22;;;25.77;;
51296;SDS011;37380;45.186;9.792;2023-12-20T12:50:06;37.70;;;25.77;;
51296;SDS011;37380;45.186;9.792;2023-12-20T12:52:34;32.80;;;25.33;;
51296;SDS011;37380;45.186;9.792;2023-12-20T12:55:02;42.95;;;24.08;;
51296;SDS011;37380;45.186;9.792;2023-12-20T12:57:31;35.85;;;25.55;;
51296;SDS011;37380;45.186;9.792;2023-12-20T12:59:59;34.88;;;25.50;;
51296;SDS011;37380;45.186;9.792;2023-12-20T13:02:27;32.08;;;25.23;;
51296;SDS011;37380;45.186;9.792;2023-12-20T13:04:54;32.78;;;26.35;;
51296;SDS011;37380;45.186;9.792;2023-12-20T13:07:23;39.60;;;29.98;;
51296;SDS011;37380;45.186;9.792;2023-12-20T13:09:50;31.08;;;26.33;;
51296;SDS011;37380;45.186;9.792;2023-12-20T13:12:17;31.10;;;25.27;;
51296;SDS011;37380;45.186;9.792;2023-12-20T13:14:44;37.20;;;24.88;;
51296;SDS011;37380;45.186;9.792;2023-12-20T13:17:12;34.35;;;25.10;;
51296;SDS011;37380;45.186;9.792;2023-12-20T13:19:39;32.30;;;26.00;;
51296;SDS011;37380;45.186;9.792;2023-12-20T13:22:06;32.13;;;26.83;;
51296;SDS011;37380;45.186;9.792;2023-12-20T13:24:33;33.55;;;26.35;;
51296;SDS011;37380;45.186;9.792;2023-12-20T13:27:01;29.17;;;25.77;;
51296;SDS011;37380;45.186;9.792;2023-12-20T13:29:28;32.22;;;27.33;;
51296;SDS011;37380;45.186;9.792;2023-12-20T13:31:55;33.97;;;26.98;;
51296;SDS011;37380;45.186;9.792;2023-12-20T13:34:23;34.80;;;25.83;;
51296;SDS011;37380;45.186;9.792;2023-12-20T13:36:51;37.60;;;25.60;;
51296;SDS011;37380;45.186;9.792;2023-12-20T13:39:18;33.72;;;24.08;;
51296;SDS011;37380;45.186;9.792;2023-12-20T13:41:45;37.38;;;26.15;;
51296;SDS011;37380;45.186;9.792;2023-12-20T13:44:12;38.08;;;26.95;;
51296;SDS011;37380;45.186;9.792;2023-12-20T13:46:40;41.60;;;28.92;;
51296;SDS011;37380;45.186;9.792;2023-12-20T13:49:08;38.60;;;28.20;;
51296;SDS011;37380;45.186;9.792;2023-12-20T13:51:35;35.33;;;27.40;;
51296;SDS011;37380;45.186;9.792;2023-12-20T13:54:02;35.08;;;30.27;;
51296;SDS011;37380;45.186;9.792;2023-12-20T13:56:29;35.85;;;29.67;;
51296;SDS011;37380;45.186;9.792;2023-12-20T13:58:57;45.22;;;30.98;;
51296;SDS011;37380;45.186;9.792;2023-12-20T14:01:25;45.08;;;33.33;;
51296;SDS011;37380;45.186;9.792;2023-12-20T14:03:53;46.75;;;31.83;;
51296;SDS011;37380;45.186;9.792;2023-12-20T14:06:20;48.58;;;34.90;;
51296;SDS011;37380;45.186;9.792;2023-12-20T14:08:47;73.15;;;35.58;;
51296;SDS011;37380;45.186;9.792;2023-12-20T14:11:14;38.05;;;32.78;;
51296;SDS011;37380;45.186;9.792;2023-12-20T14:13:42;44.35;;;33.95;;
51296;SDS011;37380;45.186;9.792;2023-12-20T14:16:10;45.95;;;37.55;;
51296;SDS011;37380;45.186;9.792;2023-12-20T14:18:37;43.42;;;32.83;;
51296;SDS011;37380;45.186;9.792;2023-12-20T14:21:06;41.28;;;31.45;;
51296;SDS011;37380;45.186;9.792;2023-12-20T14:23:34;46.17;;;36.13;;
51296;SDS011;37380;45.186;9.792;2023-12-20T14:26:01;48.63;;;32.58;;
51296;SDS011;37380;45.186;9.792;2023-12-20T14:28:29;46.70;;;34.45;;
51296;SDS011;37380;45.186;9.792;2023-12-20T14:30:56;40.47;;;31.55;;
51296;SDS011;37380;45.186;9.792;2023-12-20T14:33:23;39.67;;;30.02;;
51296;SDS011;37380;45.186;9.792;2023-12-20T14:35:51;43.15;;;29.95;;
51296;SDS011;37380;45.186;9.792;2023-12-20T14:38:18;41.90;;;29.52;;
51296;SDS011;37380;45.186;9.792;2023-12-20T14:40:46;36.88;;;30.48;;